sensor_id;sensor_type;location;lat;lon;timestamp;P1;durP1;ratioP1;P2;durP2;ratioP2
21412;SDS011;10867;45.084;5.732;2023-07-24T18:06:07;21.67;;;9.85;;
21412;SDS011;10867;45.084;5.732;2023-07-24T18:11:24;23.77;;;10.43;;
21412;SDS011;10867;45.084;5.732;2023-07-24T18:17:18;11.68;;;8.80;;
21412;SDS011;10867;45.084;5.732;2023-07-24T18:19:44;16.10;;;10.73;;
21412;SDS011;10867;45.084;5.732;2023-07-24T18:22:10;12.05;;;9.90;;
21412;SDS011;10867;45.084;5.732;2023-07-24T18:24:39;11.05;;;9.05;;
21412;SDS011;10867;45.084;5.732;2023-07-24T18:27:05;12.25;;;8.70;;
21412;SDS011;10867;45.084;5.732;2023-07-24T18:29:31;9.25;;;8.13;;
21412;SDS011;10867;45.084;5.732;2023-07-24T18:31:58;11.40;;;7.90;;
21412;SDS011;10867;45.084;5.732;2023-07-24T18:34:24;9.27;;;7.40;;
21412;SDS011;10867;45.084;5.732;2023-07-24T18:36:50;10.35;;;7.10;;
21412;SDS011;10867;45.084;5.732;2023-07-24T18:39:16;10.15;;;7.88;;
21412;SDS011;10867;45.084;5.732;2023-07-24T18:41:42;9.50;;;6.70;;
21412;SDS011;10867;45.084;5.732;2023-07-24T18:44:08;8.48;;;6.43;;
21412;SDS011;10867;45.084;5.732;2023-07-24T18:46:34;7.88;;;6.90;;
21412;SDS011;10867;45.084;5.732;2023-07-24T18:49:00;8.98;;;6.78;;
21412;SDS011;10867;45.084;5.732;2023-07-24T18:51:27;9.55;;;7.20;;
21412;SDS011;10867;45.084;5.732;2023-07-24T18:53:53;8.68;;;7.78;;
21412;SDS011;10867;45.084;5.732;2023-07-24T18:56:19;8.48;;;7.63;;
21412;SDS011;10867;45.084;5.732;2023-07-24T18:58:45;9.75;;;7.70;;
21412;SDS011;10867;45.084;5.732;2023-07-24T19:01:14;11.15;;;9.25;;
21412;SDS011;10867;45.084;5.732;2023-07-24T19:03:40;14.40;;;10.48;;
21412;SDS011;10867;45.084;5.732;2023-07-24T19:06:08;14.13;;;10.38;;
21412;SDS011;10867;45.084;5.732;2023-07-24T19:08:34;14.90;;;11.40;;
21412;SDS011;10867;45.084;5.732;2023-07-24T19:11:00;12.40;;;11.07;;
21412;SDS011;10867;45.084;5.732;2023-07-24T19:13:27;11.98;;;10.63;;
21412;SDS011;10867;45.084;5.732;2023-07-24T19:15:55;15.13;;;11.23;;
21412;SDS011;10867;45.084;5.732;2023-07-24T19:18:22;13.60;;;10.40;;
21412;SDS011;10867;45.084;5.732;2023-07-24T19:20:48;12.45;;;10.38;;
21412;SDS011;10867;45.084;5.732;2023-07-24T19:23:14;15.47;;;12.50;;
21412;SDS011;10867;45.084;5.732;2023-07-24T19:25:40;16.30;;;13.52;;
21412;SDS011;10867;45.084;5.732;2023-07-24T19:28:06;13.40;;;11.50;;
21412;SDS011;10867;45.084;5.732;2023-07-24T19:30:32;11.60;;;10.40;;
21412;SDS011;10867;45.084;5.732;2023-07-24T19:33:10;12.70;;;11.32;;
21412;SDS011;10867;45.084;5.732;2023-07-24T19:36:16;13.27;;;11.10;;
21412;SDS011;10867;45.084;5.732;2023-07-24T19:38:42;11.93;;;10.45;;
21412;SDS011;10867;45.084;5.732;2023-07-24T19:41:09;12.07;;;10.47;;
21412;SDS011;10867;45.084;5.732;2023-07-24T19:43:37;12.73;;;9.70;;
21412;SDS011;10867;45.084;5.732;2023-07-24T19:46:08;10.60;;;9.45;;
21412;SDS011;10867;45.084;5.732;2023-07-24T19:48:39;9.93;;;8.93;;
21412;SDS011;10867;45.084;5.732;2023-07-24T19:51:06;12.55;;;10.43;;
21412;SDS011;10867;45.084;5.732;2023-07-24T19:56:08;13.32;;;10.48;;
21412;SDS011;10867;45.084;5.732;2023-07-24T19:58:34;11.85;;;10.40;;
21412;SDS011;10867;45.084;5.732;2023-07-24T20:01:06;11.85;;;9.88;;
21412;SDS011;10867;45.084;5.732;2023-07-24T20:03:37;12.43;;;9.43;;
21412;SDS011;10867;45.084;5.732;2023-07-24T20:06:24;12.93;;;9.67;;
21412;SDS011;10867;45.084;5.732;2023-07-24T20:11:42;10.33;;;9.27;;
21412;SDS011;10867;45.084;5.732;2023-07-24T20:14:31;10.43;;;8.30;;
21412;SDS011;10867;45.084;5.732;2023-07-24T20:17:15;9.20;;;8.02;;
21412;SDS011;10867;45.084;5.732;2023-07-24T20:20:24;10.35;;;8.50;;
